Time;durP1;ratioP1;P1;durP2;ratioP2;P2;SDS_P1;SDS_P2;PMS_P1;PMS_P2;Temp;Humidity;BMP_temperature;BMP_pressure;BME280_temperature;BME280_humidity;BME280_pressure;Samples;Min_cycle;Max_cycle;Signal;HPM_P1;HPM_P2
2022/09/29 00:02:19;;;;;;;12.38;4.80;;;;;;;9.45;99.46;98855.84;5113232;28;20473;-77
2022/09/29 00:04:45;;;;;;;7.75;4.60;;;;;;;9.44;99.71;98862.06;5113098;27;20047;-74
2022/09/29 00:07:12;;;;;;;6.85;4.43;;;;;;;9.36;99.54;98852.97;5103312;28;20097;-73
2022/09/29 00:09:39;;;;;;;7.35;4.72;;;;;;;9.36;100.00;98863.53;5113238;28;20160;-74
2022/09/29 00:12:07;;;;;;;10.15;4.90;;;;;;;9.33;100.00;98859.31;5114667;28;20107;-74
2022/09/29 00:14:33;;;;;;;9.20;4.47;;;;;;;9.26;100.00;98863.31;5113343;28;20048;-77
2022/09/29 00:17:00;;;;;;;7.03;4.60;;;;;;;9.26;100.00;98863.31;5113022;28;20641;-76
2022/09/29 00:19:27;;;;;;;8.27;4.75;;;;;;;9.31;100.00;98869.13;5112746;28;20079;-75
2022/09/29 00:21:54;;;;;;;5.93;4.47;;;;;;;9.15;100.00;98831.47;5114470;28;20047;-77
2022/09/29 00:24:20;;;;;;;14.10;5.20;;;;;;;9.24;100.00;98865.22;5111277;28;20086;-76
2022/09/29 00:26:47;;;;;;;8.63;5.50;;;;;;;8.97;100.00;98832.69;5111519;28;20126;-74
2022/09/29 00:29:14;;;;;;;8.73;5.22;;;;;;;8.97;100.00;98859.09;5113042;28;20046;-76
2022/09/29 00:31:40;;;;;;;7.32;5.03;;;;;;;8.94;100.00;98862.78;5112690;28;20414;-73
2022/09/29 00:34:07;;;;;;;7.43;5.10;;;;;;;8.95;100.00;98861.84;5112817;28;20040;-76
2022/09/29 00:36:33;;;;;;;6.38;4.90;;;;;;;9.00;100.00;98869.44;5111980;28;20043;-71
2022/09/29 00:39:00;;;;;;;6.40;4.70;;;;;;;9.03;100.00;98864.81;5114448;28;20051;-74
2022/09/29 00:41:31;;;;;;;9.98;5.88;;;;;;;8.89;100.00;98856.94;5104291;28;20043;-75
2022/09/29 00:44:02;;;;;;;10.25;5.90;;;;;;;8.93;100.00;98870.78;5113414;28;20138;-75
2022/09/29 00:46:41;;;;;;;9.68;5.28;;;;;;;8.94;100.00;98868.06;5114269;28;20043;-77
2022/09/29 00:49:41;;;;;;;7.90;5.43;;;;;;;8.88;100.00;98871.06;5113218;28;20119;-76
2022/09/29 00:52:49;;;;;;;8.93;5.03;;;;;;;8.93;100.00;98863.72;5112678;28;20659;-75
2022/09/29 00:55:30;;;;;;;7.65;5.13;;;;;;;9.00;100.00;98858.88;5009883;28;20076;-77
2022/09/29 00:58:04;;;;;;;8.75;5.57;;;;;;;9.00;100.00;98858.88;5099914;28;20064;-77
2022/09/29 01:00:31;;;;;;;7.88;4.72;;;;;;;9.03;100.00;98856.03;5106349;28;20405;-73
2022/09/29 01:03:06;;;;;;;8.20;5.45;;;;;;;9.01;100.00;98853.50;5112319;28;20047;-74
2022/09/29 01:05:44;;;;;;;10.88;5.25;;;;;;;9.01;100.00;98855.28;5110175;28;20050;-75
2022/09/29 01:08:18;;;;;;;11.55;5.30;;;;;;;9.06;100.00;98856.69;5104482;28;20082;-76
2022/09/29 01:10:47;;;;;;;5.85;4.85;;;;;;;9.02;100.00;98841.13;5112946;28;20047;-71
2022/09/29 01:13:14;;;;;;;8.80;5.03;;;;;;;8.99;100.00;98844.81;5112839;28;20388;-74
2022/09/29 01:15:40;;;;;;;8.80;5.28;;;;;;;8.96;100.00;98844.19;5109854;28;20098;-77
2022/09/29 01:18:07;;;;;;;6.90;5.05;;;;;;;8.95;100.00;98845.13;5112788;28;20130;-75
2022/09/29 01:20:47;;;;;;;7.25;5.15;;;;;;;8.98;100.00;98843.13;5111731;28;20348;-75
2022/09/29 01:23:45;;;;;;;7.78;5.03;;;;;;;8.99;100.00;98842.19;5105337;28;20059;-76
2022/09/29 01:26:47;;;;;;;10.88;5.88;;;;;;;8.84;100.00;98843.16;5103829;28;20044;-77
2022/09/29 01:29:50;;;;;;;7.05;5.40;;;;;;;8.67;100.00;98846.03;5104162;28;20063;-72
2022/09/29 01:32:29;;;;;;;8.65;5.90;;;;;;;8.53;100.00;98846.06;5104568;28;20430;-73
2022/09/29 01:35:24;;;;;;;7.60;5.72;;;;;;;8.43;100.00;98851.94;5111001;28;20139;-74
2022/09/29 01:38:05;;;;;;;10.20;5.82;;;;;;;8.51;100.00;98848.81;5111922;28;20127;-77
2022/09/29 01:40:51;;;;;;;11.15;5.80;;;;;;;8.54;100.00;98855.69;5106149;28;20045;-75
2022/09/29 01:44:09;;;;;;;11.45;6.70;;;;;;;8.38;100.00;98856.66;5109979;28;20040;-78
2022/09/29 01:46:43;;;;;;;11.98;6.10;;;;;;;8.28;100.00;98854.66;5070497;28;20459;-75
2022/09/29 01:49:12;;;;;;;8.48;5.78;;;;;;;8.23;100.00;98856.72;5111863;28;20126;-77
2022/09/29 01:51:45;;;;;;;9.85;6.00;;;;;;;8.04;100.00;98842.03;5111363;28;20535;-75
2022/09/29 01:54:18;;;;;;;10.38;6.43;;;;;;;8.14;100.00;98862.56;5112124;28;20039;-76
2022/09/29 01:57:05;;;;;;;7.78;5.75;;;;;;;8.15;100.00;98864.28;5111786;28;20086;-77
2022/09/29 01:59:46;;;;;;;11.95;6.03;;;;;;;8.25;100.00;98863.59;5111153;28;20044;-75
2022/09/29 02:02:21;;;;;;;9.90;6.30;;;;;;;8.29;100.00;98865.13;5100051;28;20054;-74
2022/09/29 02:05:00;;;;;;;10.82;5.78;;;;;;;8.24;100.00;98869.81;5103171;28;20052;-76
2022/09/29 02:07:37;;;;;;;10.07;6.43;;;;;;;8.24;100.00;98867.19;5111789;28;20470;-76
2022/09/29 02:10:09;;;;;;;10.60;6.03;;;;;;;8.29;100.00;98859.84;5111571;28;20523;-76
2022/09/29 02:12:38;;;;;;;10.77;6.18;;;;;;;8.33;100.00;98858.75;5111443;28;20143;-76
2022/09/29 02:15:08;;;;;;;8.82;6.32;;;;;;;8.38;100.00;98867.19;5111210;28;20130;-74
2022/09/29 02:17:42;;;;;;;9.27;5.97;;;;;;;8.31;100.00;98849.19;5110346;28;20135;-76
2022/09/29 02:20:10;;;;;;;10.57;6.07;;;;;;;8.36;100.00;98855.88;5111101;28;20048;-77
2022/09/29 02:22:38;;;;;;;11.38;5.85;;;;;;;8.38;100.00;98866.34;5106658;28;20057;-73
2022/09/29 02:25:08;;;;;;;9.52;6.00;;;;;;;8.31;100.00;98867.66;5110459;28;20124;-74
2022/09/29 02:27:35;;;;;;;10.05;5.68;;;;;;;8.34;100.00;98870.16;5111410;28;20115;-75
2022/09/29 02:30:02;;;;;;;9.52;6.05;;;;;;;8.29;100.00;98866.91;5111117;28;20047;-72
2022/09/29 02:32:32;;;;;;;9.13;6.00;;;;;;;8.20;100.00;98868.28;5110703;28;20047;-76
2022/09/29 02:35:00;;;;;;;7.70;5.80;;;;;;;8.08;100.00;98875.19;5111891;28;20044;-75
2022/09/29 02:37:46;;;;;;;9.55;6.25;;;;;;;8.00;100.00;98872.19;5106604;28;20056;-75
2022/09/29 02:40:24;;;;;;;13.10;6.40;;;;;;;7.94;100.00;98872.53;5110402;28;20044;-76
2022/09/29 02:43:32;;;;;;;9.63;5.70;;;;;;;7.86;100.00;98868.69;5111224;28;20048;-75
2022/09/29 02:46:39;;;;;;;9.80;5.90;;;;;;;7.75;100.00;98864.03;5048670;28;20047;-75
2022/09/29 02:49:21;;;;;;;10.20;6.00;;;;;;;7.69;100.00;98873.16;5111210;28;20381;-75
2022/09/29 02:51:52;;;;;;;13.05;5.93;;;;;;;7.68;100.00;98883.78;5106659;28;20065;-78
2022/09/29 02:54:30;;;;;;;7.68;6.10;;;;;;;7.51;100.00;98861.06;5111960;28;20048;-76
2022/09/29 02:57:16;;;;;;;10.10;6.22;;;;;;;7.44;100.00;98861.50;5114455;28;20074;-76
2022/09/29 03:00:07;;;;;;;9.10;6.10;;;;;;;7.49;100.00;98885.81;5115614;28;20055;-76
2022/09/29 03:02:35;;;;;;;11.68;6.70;;;;;;;7.44;100.00;98893.97;5114458;28;20052;-74
2022/09/29 03:05:04;;;;;;;10.70;6.95;;;;;;;7.38;100.00;98895.19;5114750;27;20131;-76
2022/09/29 03:07:31;;;;;;;9.37;6.17;;;;;;;7.40;100.00;98893.28;5113757;28;20054;-76
2022/09/29 03:09:58;;;;;;;8.45;5.78;;;;;;;7.41;100.00;98888.88;5114545;28;20560;-75
2022/09/29 03:12:24;;;;;;;9.05;5.97;;;;;;;7.38;100.00;98889.91;5114484;28;20048;-76
2022/09/29 03:14:51;;;;;;;11.10;6.38;;;;;;;7.39;100.00;98898.66;5114635;28;20051;-75
2022/09/29 03:17:17;;;;;;;10.88;5.97;;;;;;;7.36;100.00;98889.16;5114005;28;20046;-77
2022/09/29 03:19:44;;;;;;;14.18;6.30;;;;;;;7.30;100.00;98881.59;5115546;28;20138;-76
2022/09/29 03:22:11;;;;;;;10.05;6.50;;;;;;;7.31;100.00;98890.34;5113062;28;20147;-73
2022/09/29 03:24:37;;;;;;;10.75;6.72;;;;;;;7.27;100.00;98892.31;5114053;28;20134;-76
2022/09/29 03:27:04;;;;;;;9.55;6.15;;;;;;;7.29;100.00;98886.94;5112749;28;20040;-75
2022/09/29 03:29:31;;;;;;;9.68;6.18;;;;;;;7.37;100.00;98895.28;5114705;28;20078;-72
2022/09/29 03:31:59;;;;;;;7.93;6.13;;;;;;;7.36;100.00;98890.94;5113542;28;20366;-75
2022/09/29 03:34:25;;;;;;;10.88;6.93;;;;;;;7.18;100.00;98868.28;5113845;28;20048;-74
2022/09/29 03:36:52;;;;;;;12.35;6.70;;;;;;;7.12;100.00;98866.00;5113883;28;20138;-77
2022/09/29 03:39:19;;;;;;;11.73;6.90;;;;;;;7.25;100.00;98890.69;5113829;28;20063;-74
2022/09/29 03:41:46;;;;;;;11.68;7.43;;;;;;;7.23;100.00;98880.28;5108778;28;20048;-75
2022/09/29 03:44:13;;;;;;;16.48;7.30;;;;;;;7.24;100.00;98878.50;5113826;28;20039;-75
2022/09/29 03:46:39;;;;;;;9.85;7.07;;;;;;;7.13;100.00;98870.34;5113177;28;20040;-76
2022/09/29 03:49:09;;;;;;;8.60;6.43;;;;;;;7.30;100.00;98893.91;5114244;28;20471;-73
2022/09/29 03:51:37;;;;;;;11.57;6.80;;;;;;;7.32;100.00;98899.94;5113257;28;20051;-75
2022/09/29 03:54:04;;;;;;;10.70;6.80;;;;;;;7.35;100.00;98903.25;5113210;28;20047;-75
2022/09/29 03:56:30;;;;;;;8.98;7.30;;;;;;;7.39;100.00;98906.56;5113676;28;20469;-73
2022/09/29 03:58:57;;;;;;;14.07;7.78;;;;;;;7.43;100.00;98901.94;5112361;28;20478;-76
2022/09/29 04:01:24;;;;;;;15.32;8.50;;;;;;;7.46;100.00;98899.16;5109091;28;20063;-75
2022/09/29 04:03:50;;;;;;;13.45;8.55;;;;;;;7.49;100.00;98891.06;5113214;28;20051;-77
2022/09/29 04:06:17;;;;;;;9.95;7.22;;;;;;;7.54;100.00;98899.56;5113758;28;20055;-74
2022/09/29 04:08:43;;;;;;;9.80;6.40;;;;;;;7.48;100.00;98897.28;5113029;28;20043;-73
2022/09/29 04:11:10;;;;;;;8.27;5.57;;;;;;;7.49;100.00;98910.34;5113125;28;20058;-75
2022/09/29 04:13:36;;;;;;;9.55;5.97;;;;;;;7.45;100.00;98907.97;5107820;28;20470;-73
2022/09/29 04:16:05;;;;;;;11.35;6.63;;;;;;;7.43;100.00;98904.59;5111571;28;20104;-76
2022/09/29 04:18:32;;;;;;;9.43;6.40;;;;;;;7.43;100.00;98907.22;5113535;28;20119;-75
2022/09/29 04:21:02;;;;;;;12.55;6.47;;;;;;;7.38;100.00;98903.09;5113695;28;20051;-78
2022/09/29 04:23:29;;;;;;;13.40;7.03;;;;;;;7.39;100.00;98912.69;5113161;28;20126;-74
2022/09/29 04:25:56;;;;;;;10.20;6.18;;;;;;;7.40;100.00;98911.72;5113301;28;20085;-77
2022/09/29 04:28:24;;;;;;;9.30;6.63;;;;;;;7.24;100.00;98892.47;5113480;28;20054;-76
2022/09/29 04:30:50;;;;;;;9.48;6.13;;;;;;;7.35;100.00;98911.16;5112241;28;20048;-75
2022/09/29 04:33:17;;;;;;;9.77;6.30;;;;;;;7.21;100.00;98892.66;5113331;28;20048;-75
2022/09/29 04:35:45;;;;;;;7.57;5.80;;;;;;;7.30;100.00;98918.47;5114792;28;20039;-76
2022/09/29 04:38:12;;;;;;;11.73;5.65;;;;;;;7.28;100.00;98914.22;5114214;28;20051;-75
2022/09/29 04:40:38;;;;;;;8.52;5.35;;;;;;;7.17;100.00;98901.66;5114672;28;20044;-76
2022/09/29 04:43:05;;;;;;;12.25;5.45;;;;;;;7.43;100.00;98920.38;5114529;28;20047;-73
2022/09/29 04:45:32;;;;;;;7.47;5.60;;;;;;;7.48;100.00;98920.97;5108284;28;20071;-77
2022/09/29 04:47:58;;;;;;;8.35;5.47;;;;;;;7.50;100.00;98919.97;5112513;28;20051;-73
2022/09/29 04:50:25;;;;;;;8.18;5.43;;;;;;;7.47;100.00;98921.91;5113001;28;20055;-74
2022/09/29 04:52:52;;;;;;;6.47;5.20;;;;;;;7.43;100.00;98923.03;5111746;28;20098;-74
2022/09/29 04:55:18;;;;;;;6.82;5.05;;;;;;;7.32;100.00;98895.53;5111504;28;20061;-74
2022/09/29 04:57:45;;;;;;;7.57;4.60;;;;;;;7.47;100.00;98919.28;5102320;28;20058;-74
2022/09/29 05:00:13;;;;;;;14.15;5.45;;;;;;;7.34;100.00;98906.81;5108366;28;20514;-74
2022/09/29 05:02:39;;;;;;;8.75;5.60;;;;;;;7.41;100.00;98917.84;5104468;28;20419;-74
2022/09/29 05:05:07;;;;;;;8.52;5.78;;;;;;;7.47;100.00;98924.56;5111633;28;20043;-72
2022/09/29 05:07:34;;;;;;;10.38;5.80;;;;;;;7.51;100.00;98923.44;5112071;28;20383;-73
2022/09/29 05:10:00;;;;;;;8.98;4.95;;;;;;;7.42;100.00;98913.41;5111601;28;20048;-72
2022/09/29 05:12:27;;;;;;;8.30;5.65;;;;;;;7.32;100.00;98913.97;5111494;28;20058;-71
2022/09/29 05:14:53;;;;;;;9.20;5.38;;;;;;;7.43;100.00;98929.13;5112309;28;20051;-72
2022/09/29 05:17:20;;;;;;;6.78;5.25;;;;;;;7.48;100.00;98926.25;5111702;28;20553;-74
2022/09/29 05:19:47;;;;;;;13.75;9.35;;;;;;;7.40;100.00;98921.41;5101662;28;20052;-72
2022/09/29 05:22:13;;;;;;;8.52;5.70;;;;;;;7.31;100.00;98917.53;5111560;28;20036;-74
2022/09/29 05:24:40;;;;;;;13.48;6.55;;;;;;;7.22;100.00;98904.91;5112248;28;20047;-75
2022/09/29 05:27:06;;;;;;;8.50;5.13;;;;;;;7.31;100.00;98916.69;5111538;28;20127;-76
2022/09/29 05:29:33;;;;;;;8.20;5.65;;;;;;;7.27;100.00;98918.63;5112386;28;20107;-76
2022/09/29 05:32:00;;;;;;;14.73;6.63;;;;;;;7.40;100.00;98934.56;5111478;28;20044;-73
2022/09/29 05:34:26;;;;;;;11.98;5.90;;;;;;;7.43;100.00;98931.78;5111807;28;20047;-75
2022/09/29 05:36:53;;;;;;;14.35;6.38;;;;;;;7.44;100.00;98941.38;5105594;28;20057;-77
2022/09/29 05:39:19;;;;;;;10.00;6.50;;;;;;;7.44;100.00;98935.25;5111789;28;20134;-74
2022/09/29 05:41:48;;;;;;;12.10;6.82;;;;;;;7.30;100.00;98913.19;5111992;28;20055;-73
2022/09/29 05:44:15;;;;;;;12.55;7.50;;;;;;;7.47;100.00;98940.34;5112244;28;20058;-74
2022/09/29 05:46:42;;;;;;;11.27;7.75;;;;;;;7.48;100.00;98939.41;5111533;28;20549;-76
2022/09/29 05:49:09;;;;;;;13.65;8.10;;;;;;;7.51;100.00;98941.88;5111817;28;20454;-76
2022/09/29 05:51:36;;;;;;;16.08;8.57;;;;;;;7.57;100.00;98945.00;5111670;28;20044;-73
2022/09/29 05:54:02;;;;;;;16.35;8.95;;;;;;;7.62;100.00;98950.00;5107796;28;20454;-80
2022/09/29 05:56:29;;;;;;;15.90;8.55;;;;;;;7.59;100.00;98945.75;5109239;28;20073;-75
2022/09/29 05:58:56;;;;;;;19.15;9.15;;;;;;;7.71;100.00;98952.13;5108855;28;20135;-76
2022/09/29 06:01:23;;;;;;;16.15;8.75;;;;;;;7.72;100.00;98948.53;5110705;28;20062;-74
2022/09/29 06:03:53;;;;;;;15.88;8.55;;;;;;;7.86;100.00;98950.38;5110574;28;20055;-75
2022/09/29 06:06:22;;;;;;;13.10;8.68;;;;;;;8.00;100.00;98945.97;5110741;28;20464;-76
2022/09/29 06:08:49;;;;;;;16.17;8.13;;;;;;;8.05;100.00;98948.31;5105146;28;20138;-74
2022/09/29 06:11:22;;;;;;;12.52;7.40;;;;;;;8.09;100.00;98957.75;5111439;28;20142;-74
2022/09/29 06:13:50;;;;;;;12.00;7.82;;;;;;;7.94;100.00;98935.78;5110822;28;20147;-75
2022/09/29 06:16:19;;;;;;;13.40;9.15;;;;;;;8.07;100.00;98957.84;5110961;28;20459;-79
2022/09/29 06:18:46;;;;;;;28.23;12.57;;;;;;;8.02;100.00;98949.38;5110585;28;20048;-75
2022/09/29 06:21:17;;;;;;;17.73;10.38;;;;;;;8.04;100.00;98950.09;5111291;28;20059;-78
2022/09/29 06:23:44;;;;;;;19.30;10.02;;;;;;;8.01;100.00;98949.47;5110670;28;20123;-76
2022/09/29 06:26:13;;;;;;;18.50;11.77;;;;;;;8.04;100.00;98958.03;5106570;28;20077;-76
2022/09/29 06:28:40;;;;;;;24.02;12.60;;;;;;;8.06;100.00;98957.94;5110633;28;20054;-77
2022/09/29 06:31:10;;;;;;;25.65;14.25;;;;;;;8.09;100.00;98953.34;5110140;28;20047;-73
2022/09/29 06:33:37;;;;;;;24.25;14.00;;;;;;;8.10;100.00;98962.09;5110527;28;20044;-74
2022/09/29 06:39:00;;;;;;;22.42;13.02;;;;;;;8.33;100.00;98968.66;5108553;28;20109;-74
2022/09/29 06:41:28;;;;;;;24.23;13.02;;;;;;;8.39;100.00;98955.09;5109057;28;20063;-76
2022/09/29 06:43:55;;;;;;;26.98;14.55;;;;;;;8.43;100.00;98967.16;5109692;28;20130;-75
2022/09/29 06:46:23;;;;;;;26.58;15.57;;;;;;;8.28;100.00;98949.59;5109798;28;20133;-74
2022/09/29 06:48:49;;;;;;;27.13;13.70;;;;;;;8.35;100.00;98967.59;5110452;28;20123;-73
2022/09/29 06:51:16;;;;;;;22.38;12.82;;;;;;;8.42;100.00;98979.50;5110530;28;20062;-74
2022/09/29 06:53:45;;;;;;;18.67;11.95;;;;;;;8.37;100.00;98971.00;5111941;28;20466;-76
2022/09/29 06:56:11;;;;;;;22.42;11.52;;;;;;;8.36;100.00;98969.31;5103202;28;20055;-76
2022/09/29 06:58:38;;;;;;;21.30;12.90;;;;;;;8.38;100.00;98977.97;5112267;28;20062;-76
2022/09/29 07:01:05;;;;;;;19.75;12.38;;;;;;;8.36;100.00;98985.13;5115027;28;20474;-73
2022/09/29 07:03:34;;;;;;;25.63;12.68;;;;;;;8.33;100.00;98987.13;5110418;28;20062;-74
2022/09/29 07:06:04;;;;;;;20.52;12.60;;;;;;;8.31;100.00;98996.88;5109980;28;20529;-75
2022/09/29 07:08:45;;;;;;;34.10;18.67;;;;;;;8.26;100.00;98983.97;5109692;28;20058;-71
2022/09/29 07:11:12;;;;;;;37.05;20.42;;;;;;;8.25;100.00;98982.28;5102279;28;20047;-75
2022/09/29 07:13:39;;;;;;;56.78;28.30;;;;;;;8.29;100.00;98985.56;5109410;28;20043;-73
2022/09/29 07:16:08;;;;;;;48.85;26.77;;;;;;;8.35;100.00;98979.94;5109088;28;20051;-70
2022/09/29 07:18:39;;;;;;;49.15;26.77;;;;;;;8.53;100.00;98981.47;5109400;28;20055;-72
2022/09/29 07:21:11;;;;;;;47.65;26.20;;;;;;;8.75;100.00;98987.16;5109419;28;20047;-74
2022/09/29 07:23:38;;;;;;;50.80;27.58;;;;;;;8.82;100.00;98976.19;5109452;28;20066;-73
2022/09/29 07:26:06;;;;;;;58.03;30.27;;;;;;;8.97;100.00;98980.53;5109858;28;20059;-75
2022/09/29 07:28:33;;;;;;;57.10;30.88;;;;;;;8.96;100.00;98982.34;5109199;28;20055;-76
2022/09/29 07:31:05;;;;;;;55.80;30.50;;;;;;;8.91;100.00;98983.56;5106170;28;20138;-75
2022/09/29 07:33:40;;;;;;;106.05;58.70;;;;;;;9.05;100.00;98986.16;5109360;28;20291;-75
2022/09/29 07:36:07;;;;;;;63.05;31.17;;;;;;;9.12;100.00;98990.13;5109752;28;20044;-74
2022/09/29 07:38:33;;;;;;;56.90;30.00;;;;;;;9.22;100.00;98990.38;5109561;28;20066;-75
2022/09/29 07:41:06;;;;;;;55.75;28.77;;;;;;;9.18;100.00;98975.66;5109806;28;20071;-75
2022/09/29 07:43:32;;;;;;;52.47;28.52;;;;;;;9.36;100.00;98991.19;5111345;28;20147;-76
2022/09/29 07:45:59;;;;;;;58.28;29.40;;;;;;;9.33;100.00;99003.75;5095281;28;20150;-73
2022/09/29 07:48:27;;;;;;;57.22;29.25;;;;;;;9.18;100.00;98992.38;5113273;28;20078;-74
2022/09/29 07:51:02;;;;;;;53.83;28.55;;;;;;;9.20;100.00;98998.41;5113563;28;20047;-72
2022/09/29 07:53:30;;;;;;;51.55;26.83;;;;;;;9.40;100.00;99015.63;5108450;28;20052;-75
2022/09/29 07:56:04;;;;;;;45.28;23.38;;;;;;;9.42;100.00;99005.81;5112327;28;20393;-73
2022/09/29 07:58:31;;;;;;;43.00;23.83;;;;;;;9.27;100.00;99022.66;5114339;28;20058;-72
2022/09/29 08:01:00;;;;;;;37.63;23.48;;;;;;;9.36;100.00;99014.13;5113186;28;20061;-75
2022/09/29 08:03:28;;;;;;;38.58;22.17;;;;;;;9.48;100.00;99018.63;5109747;28;20139;-76
2022/09/29 08:05:56;;;;;;;35.83;21.20;;;;;;;9.58;100.00;99019.75;5109367;28;20051;-74
2022/09/29 08:08:23;;;;;;;38.97;23.38;;;;;;;9.45;100.00;99009.09;5106626;28;20114;-75
2022/09/29 08:10:50;;;;;;;40.47;24.85;;;;;;;9.24;100.00;99025.47;5113515;28;20142;-73
2022/09/29 08:13:19;;;;;;;46.03;27.90;;;;;;;8.85;100.00;99026.16;5112894;28;20047;-72
2022/09/29 08:15:46;;;;;;;43.55;25.67;;;;;;;8.48;100.00;99001.19;5112862;28;20059;-74
2022/09/29 08:18:13;;;;;;;44.30;26.02;;;;;;;8.58;100.00;99032.19;5113565;28;20139;-72
2022/09/29 08:20:39;;;;;;;41.55;25.60;;;;;;;8.68;100.00;99033.31;5112584;28;20058;-73
2022/09/29 08:23:06;;;;;;;42.15;25.38;;;;;;;8.98;100.00;99029.72;5107760;28;20506;-76
2022/09/29 08:25:34;;;;;;;41.17;25.05;;;;;;;9.35;100.00;99039.69;5113217;28;20128;-75
2022/09/29 08:28:01;;;;;;;39.15;24.00;;;;;;;9.58;100.00;99029.47;5115450;28;20099;-71
2022/09/29 08:30:28;;;;;;;39.35;23.17;;;;;;;9.61;100.00;98997.53;5114317;28;20055;-73
2022/09/29 08:32:55;;;;;;;34.40;22.95;;;;;;;9.99;100.00;99043.47;5113055;28;20097;-75
2022/09/29 08:35:22;;;;;;;40.50;24.25;;;;;;;10.03;100.00;99046.75;5112164;28;20069;-72
2022/09/29 08:37:49;;;;;;;47.92;31.40;;;;;;;10.07;100.00;99043.78;5111090;28;20054;-72
2022/09/29 08:40:16;;;;;;;33.75;22.20;;;;;;;10.08;100.00;99048.13;5108495;28;20048;-75
2022/09/29 08:42:56;;;;;;;32.13;21.15;;;;;;;10.05;100.00;99051.00;5109061;28;20496;-72
2022/09/29 08:45:30;;;;;;;30.70;20.15;;;;;;;9.97;100.00;99044.50;5106498;28;20232;-76
2022/09/29 08:48:10;;;;;;;31.13;20.83;;;;;;;10.07;99.78;99053.53;5112978;28;20043;-74
2022/09/29 08:51:11;;;;;;;32.83;20.40;;;;;;;10.11;98.22;99053.22;5112785;28;20051;-77
2022/09/29 08:53:44;;;;;;;29.80;20.20;;;;;;;9.97;97.24;99044.50;5106822;28;20101;-74
2022/09/29 08:56:28;;;;;;;28.80;19.85;;;;;;;10.13;98.08;99061.91;5110107;28;20495;-72
2022/09/29 08:58:55;;;;;;;30.30;21.02;;;;;;;10.32;98.09;99063.38;5112195;28;20058;-73
2022/09/29 09:01:31;;;;;;;29.35;20.65;;;;;;;10.30;95.81;99047.59;5112808;28;20079;-76
2022/09/29 09:04:25;;;;;;;29.92;20.85;;;;;;;10.53;95.43;99070.72;5111982;28;20051;-75
2022/09/29 09:07:27;;;;;;;30.55;21.23;;;;;;;10.64;92.66;99069.13;5111727;28;20047;-71
2022/09/29 09:10:01;;;;;;;34.83;21.13;;;;;;;10.51;93.57;99069.97;5110180;28;20079;-75
2022/09/29 09:13:01;;;;;;;33.85;21.42;;;;;;;10.26;95.95;99075.19;5109961;28;20044;-79
2022/09/29 09:15:31;;;;;;;;;;;;;;;10.33;97.42;99070.34;5109490;28;20044;-73
2022/09/29 09:18:29;;;;;;;28.45;21.20;;;;;;;10.63;96.19;99070.94;5112735;28;19949;-73
2022/09/29 09:21:09;;;;;;;30.65;21.00;;;;;;;10.81;93.43;99077.63;5110550;28;20054;-76
2022/09/29 09:24:28;;;;;;;28.70;21.00;;;;;;;11.04;91.86;99077.81;5111997;28;20055;-71
2022/09/29 09:26:57;;;;;;;35.40;21.88;;;;;;;11.03;89.70;99068.16;5095052;28;20055;-75
2022/09/29 09:29:36;;;;;;;30.65;21.58;;;;;;;10.79;91.72;99074.22;5105691;28;20482;-77
2022/09/29 09:32:10;;;;;;;33.17;22.33;;;;;;;10.64;93.53;99069.13;5111922;28;20142;-75
2022/09/29 09:34:44;;;;;;;30.50;21.90;;;;;;;10.63;94.14;99070.94;5111826;28;20154;-77
2022/09/29 09:37:25;;;;;;;33.28;21.75;;;;;;;10.83;93.82;99064.28;5103773;28;20402;-75
2022/09/29 09:39:57;;;;;;;31.08;21.23;;;;;;;11.22;90.60;99072.06;5111328;28;20120;-75
2022/09/29 09:42:29;;;;;;;29.83;21.10;;;;;;;11.24;88.37;99053.41;5111800;28;20051;-73
2022/09/29 09:45:09;;;;;;;29.65;20.85;;;;;;;11.19;90.82;99077.59;5109073;28;20493;-72
2022/09/29 09:48:07;;;;;;;31.38;21.65;;;;;;;11.32;90.78;99074.09;5110079;28;20052;-72
2022/09/29 09:50:38;;;;;;;29.33;21.17;;;;;;;11.59;87.93;99064.16;5110380;28;20145;-70
2022/09/29 09:53:14;;;;;;;30.88;20.45;;;;;;;11.77;86.62;99068.16;5111015;28;20472;-74
2022/09/29 09:55:42;;;;;;;27.15;19.75;;;;;;;11.92;86.06;99066.19;5110728;28;20048;-77
2022/09/29 09:58:08;;;;;;;29.25;20.42;;;;;;;12.15;85.46;99067.13;5111609;28;20040;-74
2022/09/29 10:00:46;;;;;;;31.42;19.60;;;;;;;12.38;84.62;99068.91;5111006;28;20079;-73
2022/09/29 10:03:15;;;;;;;25.05;18.95;;;;;;;12.59;82.92;99061.16;5100091;28;20066;-75
2022/09/29 10:05:44;;;;;;;26.45;19.45;;;;;;;12.80;80.47;99062.13;5109412;28;20078;-72
2022/09/29 10:08:28;;;;;;;29.10;20.98;;;;;;;12.92;78.39;99069.16;5102716;28;20067;-74
2022/09/29 10:10:57;;;;;;;25.55;19.80;;;;;;;12.67;81.39;99072.00;5110980;28;20122;-75
2022/09/29 10:13:27;;;;;;;27.02;20.05;;;;;;;12.40;81.95;99060.84;5100028;28;20142;-75
2022/09/29 10:16:05;;;;;;;31.70;20.35;;;;;;;11.97;82.63;99074.63;5109861;28;20130;-71
2022/09/29 10:18:42;;;;;;;28.33;19.38;;;;;;;11.63;85.06;99049.72;5110317;28;20399;-72
2022/09/29 10:21:30;;;;;;;27.80;18.85;;;;;;;11.57;84.57;99055.47;5103145;28;20044;-76
2022/09/29 10:24:01;;;;;;;28.92;19.88;;;;;;;11.58;86.83;99088.97;5110558;28;20102;-74
2022/09/29 10:26:54;;;;;;;30.83;20.17;;;;;;;11.39;87.75;99065.56;5111412;28;20074;-75
2022/09/29 10:29:41;;;;;;;31.52;20.08;;;;;;;11.52;87.88;99090.25;5079517;28;20507;-75
2022/09/29 10:32:22;;;;;;;30.42;19.60;;;;;;;11.66;88.43;99089.25;5109720;28;20039;-71
2022/09/29 10:34:55;;;;;;;28.75;19.15;;;;;;;11.96;87.40;99093.34;5108908;28;20473;-75
2022/09/29 10:37:34;;;;;;;28.60;19.58;;;;;;;12.32;84.51;99100.38;5110829;28;20075;-77
2022/09/29 10:40:06;;;;;;;27.40;16.60;;;;;;;12.59;82.52;99096.50;5110314;28;20055;-76
2022/09/29 10:42:36;;;;;;;20.83;15.68;;;;;;;12.67;81.45;99066.72;5110429;28;20463;-75
2022/09/29 10:45:12;;;;;;;25.92;17.20;;;;;;;13.08;79.38;99092.72;5110335;28;20044;-75
2022/09/29 10:47:41;;;;;;;25.40;17.20;;;;;;;13.34;78.58;99088.91;5111278;28;20051;-74
2022/09/29 10:50:14;;;;;;;21.98;16.17;;;;;;;13.58;77.31;99088.78;5107761;28;20177;-76
2022/09/29 10:52:46;;;;;;;21.75;15.55;;;;;;;13.84;75.22;99085.84;5109500;28;20647;-75
2022/09/29 10:55:19;;;;;;;20.08;15.27;;;;;;;14.09;73.53;99087.34;5102957;28;20135;-74
2022/09/29 10:57:47;;;;;;;21.77;14.43;;;;;;;14.27;71.76;99083.16;5111252;28;20134;-77
2022/09/29 11:00:37;;;;;;;21.98;15.57;;;;;;;14.11;71.33;99080.91;5113446;28;20526;-75
2022/09/29 11:03:26;;;;;;;19.98;14.27;;;;;;;13.75;73.52;99081.25;5112646;28;20090;-75
2022/09/29 11:06:02;;;;;;;20.77;13.82;;;;;;;13.80;73.23;99084.41;5111508;28;20115;-76
2022/09/29 11:08:30;;;;;;;20.08;13.70;;;;;;;13.56;73.68;99093.34;5110492;28;20048;-73
2022/09/29 11:11:20;;;;;;;21.77;14.52;;;;;;;13.56;74.30;99085.38;5108483;28;20384;-71
2022/09/29 11:13:48;;;;;;;21.58;13.57;;;;;;;13.78;72.69;99089.00;5109951;28;20052;-73
2022/09/29 11:16:18;;;;;;;17.10;12.18;;;;;;;14.04;71.66;99079.72;5109767;28;20053;-70
2022/09/29 11:18:51;;;;;;;16.33;11.98;;;;;;;14.31;69.52;99090.78;5113765;28;20470;-74
2022/09/29 11:21:20;;;;;;;18.17;12.25;;;;;;;14.03;69.21;99094.84;5114001;28;20082;-73
2022/09/29 11:24:22;;;;;;;16.90;12.03;;;;;;;14.15;71.03;99095.69;5113943;28;20048;-73
2022/09/29 11:26:53;;;;;;;15.15;10.75;;;;;;;14.41;68.82;99074.06;5068266;28;20066;-75
2022/09/29 11:29:57;;;;;;;16.25;10.07;;;;;;;14.86;66.28;99096.81;5105728;28;20355;-70
2022/09/29 11:32:49;;;;;;;17.90;10.40;;;;;;;15.13;62.99;99085.59;5107021;28;20569;-72
2022/09/29 11:35:57;;;;;;;13.80;9.48;;;;;;;14.74;64.38;99089.88;5099459;28;20084;-73
2022/09/29 11:39:25;;;;;;;12.30;8.68;;;;;;;14.43;67.91;99088.94;5113222;28;20522;-71
2022/09/29 11:42:13;;;;;;;12.50;8.13;;;;;;;14.63;66.10;99077.47;5066000;28;20069;-72
2022/09/29 11:45:13;;;;;;;9.73;7.20;;;;;;;14.98;60.41;99086.91;5112114;28;20099;-73
2022/09/29 11:47:59;;;;;;;10.05;6.13;;;;;;;15.22;62.04;99084.81;5109334;28;20442;-72
2022/09/29 11:50:52;;;;;;;8.85;5.88;;;;;;;15.35;58.09;99085.44;5107265;28;20058;-73
2022/09/29 11:53:33;;;;;;;8.23;5.50;;;;;;;14.94;58.54;99081.03;5113812;28;20043;-74
2022/09/29 11:56:11;;;;;;;10.40;5.85;;;;;;;14.77;58.94;99088.78;5113648;28;20139;-75